createdAt,value
2023-05-20T00:00:14.559Z,71.04
2023-05-20T00:03:08.409Z,70.90
2023-05-20T00:05:42.991Z,70.81
2023-05-20T00:08:17.051Z,70.65
2023-05-20T00:10:50.767Z,70.52
2023-05-20T00:13:25.238Z,70.52
2023-05-20T00:15:58.952Z,70.51
2023-05-20T00:18:32.951Z,70.26
2023-05-20T00:21:06.800Z,70.13
2023-05-20T00:23:41.018Z,70.13
2023-05-20T00:26:14.348Z,70.22
2023-05-20T00:28:48.418Z,70.20
2023-05-20T00:31:22.478Z,70.25
2023-05-20T00:33:56.361Z,70.27
2023-05-20T00:36:30.263Z,70.30
2023-05-20T00:39:04.052Z,70.27
2023-05-20T00:41:37.942Z,70.21
2023-05-20T00:44:11.877Z,70.07
2023-05-20T00:46:46.103Z,70.28
2023-05-20T00:49:19.782Z,70.15
2023-05-20T00:51:53.614Z,70.14
2023-05-20T00:54:27.237Z,70.06
2023-05-20T00:57:03.780Z,70.12
2023-05-20T00:59:38.359Z,70.11
2023-05-20T01:02:12.311Z,70.24
2023-05-20T01:04:47.755Z,70.16
2023-05-20T01:07:21.959Z,70.13
2023-05-20T01:09:56.615Z,70.11
2023-05-20T01:12:33.977Z,70.05
2023-05-20T01:15:11.067Z,70.05
2023-05-20T01:17:47.496Z,69.93
2023-05-20T01:20:22.236Z,69.94
2023-05-20T01:22:57.839Z,69.93
2023-05-20T01:25:31.717Z,69.91
2023-05-20T01:28:06.426Z,69.93
2023-05-20T01:30:50.478Z,69.95
2023-05-20T01:33:27.228Z,69.99
2023-05-20T01:36:01.598Z,69.95
2023-05-20T01:38:35.788Z,69.87
2023-05-20T01:41:10.944Z,69.68
2023-05-20T01:43:45.012Z,69.74
2023-05-20T01:46:18.709Z,69.71
2023-05-20T01:48:52.779Z,69.79
2023-05-20T01:51:26.425Z,69.63
2023-05-20T01:54:00.596Z,69.66
2023-05-20T01:56:34.465Z,69.65
2023-05-20T01:59:08.160Z,69.54
2023-05-20T02:01:41.677Z,69.56
2023-05-20T02:04:15.333Z,69.57
2023-05-20T02:06:48.741Z,69.57
2023-05-20T02:09:23.399Z,69.55
2023-05-20T02:11:59.743Z,69.75
2023-05-20T02:14:33.602Z,69.41
2023-05-20T02:17:07.646Z,69.49
2023-05-20T02:19:41.702Z,69.54
2023-05-20T02:22:15.333Z,69.49
2023-05-20T02:24:50.669Z,69.41
2023-05-20T02:27:24.999Z,69.39
2023-05-20T02:29:59.574Z,69.29
2023-05-20T02:32:34.165Z,69.31
2023-05-20T02:35:08.616Z,69.36
2023-05-20T02:37:42.448Z,69.42
2023-05-20T02:40:16.834Z,69.50
2023-05-20T02:42:50.394Z,69.30
2023-05-20T02:45:24.227Z,69.43
2023-05-20T02:47:58.744Z,69.50
2023-05-20T02:50:32.486Z,69.49
2023-05-20T02:53:05.901Z,69.39
2023-05-20T02:55:40.138Z,69.39
2023-05-20T02:58:14.054Z,69.30
2023-05-20T03:00:48.113Z,69.37
2023-05-20T03:03:23.172Z,69.33
2023-05-20T03:05:57.092Z,69.32
2023-05-20T03:08:31.623Z,69.35
2023-05-20T03:11:06.735Z,69.36
2023-05-20T03:13:40.616Z,69.20
2023-05-20T03:16:14.741Z,69.23
2023-05-20T03:18:48.238Z,69.27
2023-05-20T03:21:29.816Z,69.29
2023-05-20T03:24:03.422Z,69.35
2023-05-20T03:26:38.935Z,69.28
2023-05-20T03:29:13.254Z,69.26
2023-05-20T03:31:47.168Z,69.41
2023-05-20T03:34:20.951Z,69.40
2023-05-20T03:36:54.885Z,69.35
2023-05-20T03:39:28.452Z,69.35
2023-05-20T03:42:02.455Z,69.24
2023-05-20T03:44:36.481Z,69.30
2023-05-20T03:47:10.984Z,69.15
2023-05-20T03:49:45.261Z,69.26
2023-05-20T03:52:19.233Z,69.23
2023-05-20T03:54:53.021Z,69.10
2023-05-20T03:57:27.360Z,69.10
2023-05-20T04:00:02.656Z,69.09
2023-05-20T04:02:37.715Z,68.82
2023-05-20T04:05:12.877Z,68.72
2023-05-20T04:07:47.366Z,68.69
2023-05-20T04:10:22.582Z,68.73
2023-05-20T04:12:57.491Z,68.71
2023-05-20T04:15:31.574Z,68.65
2023-05-20T04:18:06.101Z,68.56
2023-05-20T04:20:41.952Z,68.55
2023-05-20T04:23:16.626Z,68.58
2023-05-20T04:25:50.496Z,68.59
2023-05-20T04:28:28.881Z,68.53
2023-05-20T04:31:06.015Z,68.47
2023-05-20T04:33:41.802Z,68.47
2023-05-20T04:36:16.792Z,68.37
2023-05-20T04:38:51.151Z,68.31
2023-05-20T04:41:25.671Z,68.11
2023-05-20T04:44:01.144Z,67.97
2023-05-20T04:46:35.567Z,68.00
2023-05-20T04:49:09.061Z,67.74
2023-05-20T04:51:44.248Z,67.37
2023-05-20T04:54:20.679Z,67.10
2023-05-20T04:56:55.059Z,67.08
2023-05-20T04:59:29.325Z,66.80
2023-05-20T05:02:03.128Z,66.39
2023-05-20T05:04:36.919Z,66.39
2023-05-20T05:07:11.424Z,66.33
2023-05-20T05:09:44.967Z,66.29
2023-05-20T05:12:18.684Z,66.11
2023-05-20T05:14:52.978Z,65.74
2023-05-20T05:17:26.727Z,65.84
2023-05-20T05:20:00.500Z,65.66
2023-05-20T05:22:37.772Z,65.63
2023-05-20T05:25:13.388Z,65.77
2023-05-20T05:27:49.814Z,65.43
2023-05-20T05:30:23.761Z,64.88
2023-05-20T05:32:58.032Z,64.58
2023-05-20T05:35:32.386Z,64.48
2023-05-20T05:38:06.158Z,64.69
2023-05-20T05:40:40.345Z,64.45
2023-05-20T05:43:14.392Z,64.21
2023-05-20T05:45:48.882Z,63.97
2023-05-20T05:48:23.042Z,63.42
2023-05-20T05:50:57.050Z,63.09
2023-05-20T05:53:31.115Z,62.91
2023-05-20T05:56:04.886Z,62.70
2023-05-20T05:58:40.091Z,62.17
2023-05-20T06:01:14.304Z,61.94
2023-05-20T06:03:48.494Z,61.82
2023-05-20T06:06:22.324Z,61.94
2023-05-20T06:08:56.152Z,61.97
2023-05-20T06:11:30.707Z,61.93
2023-05-20T06:14:05.280Z,61.83
2023-05-20T06:16:39.687Z,61.69
2023-05-20T06:19:14.422Z,61.45
2023-05-20T06:21:48.150Z,61.37
2023-05-20T06:24:24.268Z,60.97
2023-05-20T06:26:58.243Z,60.22
2023-05-20T06:29:32.257Z,59.99
2023-05-20T06:32:06.083Z,59.43
2023-05-20T06:34:40.432Z,59.63
2023-05-20T06:37:14.802Z,59.51
2023-05-20T06:39:54.390Z,59.30
2023-05-20T06:42:28.472Z,58.50
2023-05-20T06:45:14.352Z,58.28
2023-05-20T06:48:11.602Z,57.83
2023-05-20T06:50:48.959Z,57.22
2023-05-20T06:53:22.966Z,56.90
2023-05-20T06:55:57.350Z,55.72
2023-05-20T06:58:31.566Z,54.03
2023-05-20T07:01:05.671Z,53.32
2023-05-20T07:03:39.659Z,53.52
2023-05-20T07:06:13.503Z,52.69
2023-05-20T07:08:47.963Z,50.59
2023-05-20T07:11:22.069Z,48.36
2023-05-20T07:13:55.629Z,46.18
2023-05-20T07:16:35.400Z,44.90
2023-05-20T07:19:10.274Z,43.10
2023-05-20T07:21:44.485Z,43.40
2023-05-20T07:24:41.149Z,43.14
2023-05-20T07:27:14.983Z,43.07
2023-05-20T07:29:48.841Z,42.87
2023-05-20T07:32:23.444Z,43.11
2023-05-20T07:34:57.518Z,43.55
2023-05-20T07:37:31.607Z,43.63
2023-05-20T07:40:11.739Z,42.47
2023-05-20T07:42:45.679Z,41.91
2023-05-20T07:45:20.079Z,42.48
2023-05-20T07:47:53.952Z,43.16
2023-05-20T07:50:28.235Z,43.56
2023-05-20T07:53:02.472Z,43.64
2023-05-20T07:55:38.764Z,43.82
2023-05-20T07:58:13.685Z,43.41
2023-05-20T08:00:48.178Z,42.89
2023-05-20T08:03:23.052Z,43.03
2023-05-20T08:06:05.438Z,42.98
2023-05-20T08:08:40.976Z,43.00
2023-05-20T08:11:19.403Z,43.67
2023-05-20T08:13:53.744Z,43.67
2023-05-20T08:16:30.029Z,43.59
2023-05-20T08:19:03.763Z,43.57
2023-05-20T08:21:37.946Z,43.97
2023-05-20T08:24:11.720Z,44.74
2023-05-20T08:26:46.458Z,44.71
2023-05-20T08:29:20.842Z,43.96
2023-05-20T08:31:54.816Z,43.78
2023-05-20T08:34:29.080Z,44.17
2023-05-20T08:37:03.545Z,44.21
2023-05-20T08:39:37.314Z,44.21
2023-05-20T08:42:14.201Z,44.66
2023-05-20T08:44:48.892Z,43.71
2023-05-20T08:47:23.452Z,43.59
2023-05-20T08:49:57.065Z,44.18
2023-05-20T08:52:33.508Z,44.32
2023-05-20T08:55:11.851Z,44.23
2023-05-20T08:57:46.225Z,43.93
2023-05-20T09:00:22.133Z,44.18
2023-05-20T09:02:56.468Z,43.84
2023-05-20T09:05:33.297Z,43.95
2023-05-20T09:08:11.918Z,43.61
2023-05-20T09:10:46.325Z,42.96
2023-05-20T09:13:23.999Z,42.75
2023-05-20T09:15:57.944Z,42.75
2023-05-20T09:18:32.318Z,42.92
2023-05-20T09:21:08.624Z,43.33
2023-05-20T09:23:42.239Z,43.52
2023-05-20T09:26:16.943Z,43.72
2023-05-20T09:28:50.504Z,43.48
2023-05-20T09:31:27.606Z,43.06
2023-05-20T09:34:01.762Z,43.31
2023-05-20T09:36:37.692Z,43.17
2023-05-20T09:39:15.515Z,43.41
2023-05-20T09:41:58.309Z,43.63
2023-05-20T09:44:32.907Z,43.49
2023-05-20T09:47:08.811Z,43.28
2023-05-20T09:49:43.661Z,43.62
2023-05-20T09:52:20.724Z,43.93
2023-05-20T09:54:58.165Z,43.47
2023-05-20T09:57:35.381Z,43.73
2023-05-20T10:00:14.156Z,43.78
2023-05-20T10:02:50.319Z,43.80
2023-05-20T10:05:26.330Z,43.02
2023-05-20T10:08:24.749Z,43.54
2023-05-20T10:11:07.428Z,43.39
2023-05-20T10:13:57.313Z,41.95
2023-05-20T10:16:38.289Z,41.56
2023-05-20T10:19:30.238Z,41.25
2023-05-20T10:22:05.750Z,40.31
2023-05-20T10:24:41.487Z,40.19
2023-05-20T10:27:17.432Z,40.05
2023-05-20T10:29:55.942Z,41.14
2023-05-20T10:32:31.927Z,41.03
2023-05-20T10:35:07.368Z,40.87
2023-05-20T10:37:48.607Z,40.81
2023-05-20T10:40:24.362Z,41.05
2023-05-20T10:43:01.960Z,41.45
2023-05-20T10:45:37.777Z,41.72
2023-05-20T10:48:21.777Z,41.84
2023-05-20T10:50:58.829Z,41.47
2023-05-20T10:53:42.118Z,41.31
2023-05-20T10:56:23.347Z,41.48
2023-05-20T10:58:58.109Z,40.95
2023-05-20T11:01:32.593Z,40.70
2023-05-20T11:04:07.033Z,40.89
2023-05-20T11:06:40.987Z,41.09
2023-05-20T11:09:14.988Z,41.26
2023-05-20T11:11:48.553Z,41.07
2023-05-20T11:14:23.075Z,41.44
2023-05-20T11:17:00.515Z,41.72
2023-05-20T11:19:35.077Z,40.95
2023-05-20T11:22:10.850Z,40.36
2023-05-20T11:24:44.534Z,39.93
2023-05-20T11:27:18.184Z,38.70
2023-05-20T11:29:53.394Z,38.84
2023-05-20T11:32:27.296Z,39.75
2023-05-20T11:35:02.098Z,39.44
2023-05-20T11:37:37.780Z,39.20
2023-05-20T11:40:13.698Z,38.45
2023-05-20T11:42:49.544Z,38.75
2023-05-20T11:45:23.389Z,38.91
2023-05-20T11:48:08.379Z,38.89
2023-05-20T11:50:44.203Z,39.72
2023-05-20T11:53:20.854Z,39.78
2023-05-20T11:55:57.271Z,40.15
2023-05-20T11:58:32.704Z,39.96
2023-05-20T12:01:21.048Z,40.42
2023-05-20T12:03:56.620Z,40.75
2023-05-20T12:06:30.630Z,41.19
2023-05-20T12:09:07.539Z,41.52
2023-05-20T12:11:42.481Z,41.68
2023-05-20T12:14:16.596Z,41.74
2023-05-20T12:16:50.047Z,41.72
2023-05-20T12:19:24.656Z,41.17
2023-05-20T12:21:58.592Z,40.57
2023-05-20T12:24:32.334Z,40.65
2023-05-20T12:27:06.819Z,40.08
2023-05-20T12:29:40.461Z,40.54
2023-05-20T12:32:13.896Z,40.51
2023-05-20T12:34:47.745Z,40.04
2023-05-20T12:37:21.467Z,39.53
2023-05-20T12:39:55.075Z,39.39
2023-05-20T12:42:28.456Z,38.43
2023-05-20T12:45:02.635Z,38.74
2023-05-20T12:47:37.308Z,38.38
2023-05-20T12:50:12.396Z,39.00
2023-05-20T12:52:46.410Z,38.59
2023-05-20T12:55:30.483Z,37.91
2023-05-20T12:58:04.426Z,37.48
2023-05-20T13:00:38.726Z,37.60
2023-05-20T13:03:12.765Z,36.76
2023-05-20T13:05:46.651Z,36.45
2023-05-20T13:08:20.560Z,37.34
2023-05-20T13:10:54.233Z,37.60
2023-05-20T13:13:27.918Z,37.44
2023-05-20T13:16:02.113Z,37.48
2023-05-20T13:18:36.001Z,37.82
2023-05-20T13:21:10.004Z,38.53
2023-05-20T13:23:45.611Z,38.93
2023-05-20T13:26:19.859Z,38.71
2023-05-20T13:28:53.902Z,38.12
2023-05-20T13:31:27.769Z,38.40
2023-05-20T13:34:02.327Z,38.52
2023-05-20T13:36:36.661Z,39.00
2023-05-20T13:39:10.575Z,39.12
2023-05-20T13:41:44.541Z,39.55
2023-05-20T13:44:18.578Z,39.52
2023-05-20T13:46:52.735Z,39.81
2023-05-20T13:49:26.876Z,39.43
2023-05-20T13:52:01.513Z,38.99
2023-05-20T13:54:35.808Z,39.37
2023-05-20T13:57:10.494Z,39.16
2023-05-20T13:59:44.357Z,39.14
2023-05-20T14:02:17.994Z,39.38
2023-05-20T14:04:51.633Z,39.94
2023-05-20T14:07:24.979Z,39.99
2023-05-20T14:09:59.165Z,40.14
2023-05-20T14:12:33.089Z,40.69
2023-05-20T14:15:07.896Z,40.80
2023-05-20T14:17:42.036Z,40.76
2023-05-20T14:20:16.462Z,41.01
2023-05-20T14:22:50.047Z,40.83
2023-05-20T14:25:24.132Z,40.98
2023-05-20T14:27:58.441Z,41.12
2023-05-20T14:30:32.846Z,41.45
2023-05-20T14:33:07.066Z,41.24
2023-05-20T14:35:40.884Z,41.19
2023-05-20T14:38:14.745Z,41.21
2023-05-20T14:40:48.266Z,41.20
2023-05-20T14:43:21.764Z,41.54
2023-05-20T14:45:55.571Z,41.76
2023-05-20T14:48:29.556Z,41.60
2023-05-20T14:51:03.487Z,41.85
2023-05-20T14:53:37.873Z,41.87
2023-05-20T14:56:12.346Z,41.85
2023-05-20T14:58:46.108Z,41.84
2023-05-20T15:01:20.465Z,41.99
2023-05-20T15:03:54.351Z,41.75
2023-05-20T15:06:28.104Z,41.96
2023-05-20T15:09:01.788Z,42.46
2023-05-20T15:11:35.654Z,42.72
2023-05-20T15:14:09.230Z,42.82
2023-05-20T15:16:44.834Z,42.76
2023-05-20T15:19:18.736Z,42.48
2023-05-20T15:21:53.179Z,42.35
2023-05-20T15:24:27.197Z,42.30
2023-05-20T15:27:00.660Z,42.61
2023-05-20T15:29:34.533Z,42.79
2023-05-20T15:32:09.386Z,42.89
2023-05-20T15:34:43.332Z,42.73
2023-05-20T15:37:16.736Z,42.93
2023-05-20T15:39:51.513Z,43.04
2023-05-20T15:42:25.275Z,43.09
2023-05-20T15:44:58.942Z,43.20
2023-05-20T15:47:32.735Z,43.21
2023-05-20T15:50:08.846Z,43.30
2023-05-20T15:52:43.130Z,43.23
2023-05-20T15:55:17.106Z,43.30
2023-05-20T15:57:51.189Z,43.26
2023-05-20T16:00:25.938Z,43.36
2023-05-20T16:03:00.049Z,43.60
2023-05-20T16:05:33.988Z,43.51
2023-05-20T16:08:08.326Z,43.46
2023-05-20T16:10:42.046Z,43.55
2023-05-20T16:13:15.604Z,43.24
2023-05-20T16:15:51.486Z,43.39
2023-05-20T16:18:25.282Z,43.37
2023-05-20T16:20:59.422Z,43.47
2023-05-20T16:23:33.186Z,43.44
2023-05-20T16:26:07.057Z,43.42
2023-05-20T16:28:40.749Z,43.35
2023-05-20T16:31:14.784Z,43.46
2023-05-20T16:33:48.904Z,43.47
2023-05-20T16:36:23.515Z,43.45
2023-05-20T16:38:57.303Z,43.73
2023-05-20T16:41:31.274Z,43.72
2023-05-20T16:44:05.137Z,43.75
2023-05-20T16:46:38.742Z,43.77
2023-05-20T16:49:12.482Z,43.93
2023-05-20T16:51:47.587Z,43.81
2023-05-20T16:54:21.708Z,43.80
2023-05-20T16:56:55.401Z,43.90
2023-05-20T16:59:30.651Z,43.82
2023-05-20T17:02:04.261Z,43.98
2023-05-20T17:04:38.486Z,43.96
2023-05-20T17:07:13.774Z,43.74
2023-05-20T17:09:47.514Z,44.03
2023-05-20T17:12:21.438Z,43.80
2023-05-20T17:14:55.173Z,43.89
2023-05-20T17:17:29.171Z,44.01
2023-05-20T17:20:02.720Z,44.03
2023-05-20T17:22:36.683Z,44.12
2023-05-20T17:25:12.126Z,44.22
2023-05-20T17:27:45.701Z,44.27
2023-05-20T17:30:19.838Z,44.52
2023-05-20T17:32:54.174Z,44.52
2023-05-20T17:35:28.580Z,44.68
2023-05-20T17:38:02.382Z,44.74
2023-05-20T17:40:36.918Z,44.77
2023-05-20T17:43:10.909Z,44.97
2023-05-20T17:45:44.462Z,44.84
2023-05-20T17:48:18.299Z,44.71
2023-05-20T17:50:52.162Z,44.76
2023-05-20T17:53:26.057Z,44.85
2023-05-20T17:55:59.992Z,44.92
2023-05-20T17:58:34.111Z,44.95
2023-05-20T18:01:09.725Z,45.00
2023-05-20T18:03:43.840Z,45.06
2023-05-20T18:06:18.310Z,45.10
2023-05-20T18:08:52.098Z,45.23
2023-05-20T18:11:27.347Z,45.32
2023-05-20T18:14:01.625Z,45.49
2023-05-20T18:16:35.507Z,45.57
2023-05-20T18:19:09.328Z,45.56
2023-05-20T18:21:43.903Z,45.54
2023-05-20T18:24:19.566Z,45.52
2023-05-20T18:26:53.971Z,45.63
2023-05-20T18:29:27.467Z,45.62
2023-05-20T18:32:01.650Z,45.69
2023-05-20T18:34:35.832Z,45.85
2023-05-20T18:37:10.211Z,45.95
2023-05-20T18:39:44.044Z,45.84
2023-05-20T18:42:18.144Z,45.90
2023-05-20T18:44:51.777Z,46.05
2023-05-20T18:47:26.111Z,46.11
2023-05-20T18:50:00.074Z,46.29
2023-05-20T18:52:34.033Z,46.41
2023-05-20T18:55:09.181Z,46.44
2023-05-20T18:57:42.965Z,46.47
2023-05-20T19:00:18.791Z,46.27
2023-05-20T19:02:52.676Z,46.38
2023-05-20T19:05:26.932Z,46.50
2023-05-20T19:08:02.954Z,46.54
2023-05-20T19:10:36.786Z,46.64
2023-05-20T19:13:10.243Z,46.94
2023-05-20T19:15:44.171Z,47.14
2023-05-20T19:18:17.797Z,47.36
2023-05-20T19:20:52.761Z,47.58
2023-05-20T19:23:26.987Z,47.65
2023-05-20T19:26:00.998Z,47.80
2023-05-20T19:28:34.935Z,48.00
2023-05-20T19:31:09.186Z,48.19
2023-05-20T19:33:43.081Z,48.25
2023-05-20T19:36:16.882Z,48.20
2023-05-20T19:38:50.543Z,48.35
2023-05-20T19:41:24.030Z,48.48
2023-05-20T19:43:57.816Z,48.82
2023-05-20T19:46:31.722Z,48.91
2023-05-20T19:49:05.473Z,48.91
2023-05-20T19:51:40.063Z,49.06
2023-05-20T19:54:13.610Z,49.19
2023-05-20T19:56:47.237Z,49.35
2023-05-20T19:59:20.879Z,49.63
2023-05-20T20:01:54.656Z,49.58
2023-05-20T20:04:28.371Z,49.59
2023-05-20T20:07:03.057Z,49.89
2023-05-20T20:09:49.426Z,50.04
2023-05-20T20:12:23.928Z,50.07
2023-05-20T20:14:58.071Z,50.18
2023-05-20T20:17:34.073Z,50.39
2023-05-20T20:20:10.606Z,50.44
2023-05-20T20:22:44.703Z,50.49
2023-05-20T20:25:19.024Z,50.44
2023-05-20T20:27:53.058Z,50.59
2023-05-20T20:30:27.183Z,50.64
2023-05-20T20:33:01.726Z,50.56
2023-05-20T20:35:35.622Z,50.67
2023-05-20T20:38:10.379Z,50.52
2023-05-20T20:40:45.197Z,50.79
2023-05-20T20:43:21.178Z,50.79
2023-05-20T20:45:56.838Z,50.66
2023-05-20T20:48:31.038Z,50.57
2023-05-20T20:51:05.060Z,50.53
2023-05-20T20:53:38.645Z,50.43
2023-05-20T20:56:12.736Z,50.49
2023-05-20T20:58:46.615Z,50.59
2023-05-20T21:01:20.100Z,50.61
2023-05-20T21:03:54.882Z,50.94
2023-05-20T21:06:28.945Z,50.97
2023-05-20T21:09:05.211Z,51.01
2023-05-20T21:11:42.473Z,51.30
2023-05-20T21:14:16.483Z,51.43
2023-05-20T21:16:50.159Z,51.40
2023-05-20T21:19:24.353Z,51.59
2023-05-20T21:22:00.043Z,51.75
2023-05-20T21:24:34.138Z,51.86
2023-05-20T21:27:08.382Z,51.90
2023-05-20T21:29:41.864Z,51.99
2023-05-20T21:32:15.604Z,52.09
2023-05-20T21:34:49.193Z,52.24
2023-05-20T21:37:22.987Z,52.29
2023-05-20T21:39:56.693Z,52.28
2023-05-20T21:42:30.566Z,52.38
2023-05-20T21:45:04.311Z,52.54
2023-05-20T21:47:38.080Z,52.62
2023-05-20T21:50:13.376Z,52.56
2023-05-20T21:52:47.603Z,52.62
2023-05-20T21:55:23.958Z,52.65
2023-05-20T21:57:57.817Z,52.66
2023-05-20T22:00:31.335Z,52.64
2023-05-20T22:03:06.108Z,52.52
2023-05-20T22:05:40.295Z,52.49
2023-05-20T22:08:14.310Z,52.35
2023-05-20T22:10:48.795Z,52.23
2023-05-20T22:13:26.465Z,52.40
2023-05-20T22:16:00.479Z,52.39
2023-05-20T22:18:34.128Z,52.25
2023-05-20T22:21:08.308Z,52.43
2023-05-20T22:23:42.514Z,52.49
2023-05-20T22:26:18.743Z,52.53
2023-05-20T22:28:52.688Z,52.58
2023-05-20T22:31:26.346Z,52.61
2023-05-20T22:33:59.797Z,52.59
2023-05-20T22:36:36.714Z,52.66
2023-05-20T22:39:10.616Z,52.72
2023-05-20T22:41:44.169Z,52.69
2023-05-20T22:44:17.885Z,52.77
2023-05-20T22:46:51.382Z,52.86
2023-05-20T22:49:25.500Z,52.83
2023-05-20T22:51:59.719Z,52.96
2023-05-20T22:54:43.114Z,52.95
2023-05-20T22:57:17.421Z,52.95
2023-05-20T22:59:52.379Z,53.05
2023-05-20T23:02:26.488Z,52.72
2023-05-20T23:05:00.290Z,52.77
2023-05-20T23:07:34.219Z,52.73
2023-05-20T23:10:08.358Z,52.80
2023-05-20T23:12:42.211Z,52.87
2023-05-20T23:15:16.070Z,53.05
2023-05-20T23:17:52.056Z,52.97
2023-05-20T23:20:29.823Z,52.98
2023-05-20T23:23:10.856Z,53.14
2023-05-20T23:25:46.265Z,53.11
2023-05-20T23:28:20.120Z,53.07
2023-05-20T23:30:53.870Z,52.88
2023-05-20T23:33:27.869Z,52.90
2023-05-20T23:36:01.639Z,52.99
2023-05-20T23:38:35.735Z,53.02
2023-05-20T23:41:09.621Z,53.15
2023-05-20T23:43:43.449Z,53.21
2023-05-20T23:46:18.794Z,53.24
2023-05-20T23:48:52.517Z,53.11
2023-05-20T23:51:26.017Z,53.27
2023-05-20T23:53:59.952Z,53.38
2023-05-20T23:56:34.330Z,53.31
2023-05-20T23:59:07.780Z,53.34
